createdAt,value
2023-03-08T00:01:24.198Z,49.97
2023-03-08T00:03:53.754Z,42.67
2023-03-08T00:06:22.480Z,46.47
2023-03-08T00:08:56.097Z,54.17
2023-03-08T00:11:24.515Z,43.20
2023-03-08T00:13:53.024Z,49.77
2023-03-08T00:16:21.429Z,39.30
2023-03-08T00:18:50.036Z,48.37
2023-03-08T00:21:19.800Z,42.53
2023-03-08T00:23:48.376Z,46.67
2023-03-08T00:26:18.086Z,41.53
2023-03-08T00:28:47.364Z,45.93
2023-03-08T00:31:15.978Z,43.23
2023-03-08T00:33:44.312Z,49.50
2023-03-08T00:36:17.791Z,46.87
2023-03-08T00:38:46.984Z,45.23
2023-03-08T00:41:17.418Z,45.60
2023-03-08T00:43:45.876Z,44.13
2023-03-08T00:46:14.961Z,40.27
2023-03-08T00:48:43.657Z,44.20
2023-03-08T00:51:14.007Z,42.70
2023-03-08T00:53:42.410Z,35.93
2023-03-08T00:56:11.539Z,43.70
2023-03-08T00:58:42.447Z,38.93
2023-03-08T01:01:16.991Z,44.20
2023-03-08T01:03:48.110Z,42.77
2023-03-08T01:06:17.606Z,41.20
2023-03-08T01:08:46.383Z,44.73
2023-03-08T01:11:20.344Z,36.70
2023-03-08T01:13:50.525Z,37.90
2023-03-08T01:16:20.356Z,39.40
2023-03-08T01:18:48.738Z,34.47
2023-03-08T01:21:17.837Z,41.13
2023-03-08T01:23:46.184Z,42.43
2023-03-08T01:26:16.418Z,35.60
2023-03-08T01:28:44.812Z,37.13
2023-03-08T01:31:16.269Z,37.93
2023-03-08T01:33:44.888Z,36.77
2023-03-08T01:36:16.172Z,39.50
2023-03-08T01:38:46.544Z,41.27
2023-03-08T01:41:17.798Z,38.57
2023-03-08T01:43:46.485Z,33.63
2023-03-08T01:46:28.392Z,35.27
2023-03-08T01:49:37.380Z,35.50
2023-03-08T01:52:10.407Z,32.67
2023-03-08T01:54:41.347Z,38.47
2023-03-08T01:57:13.406Z,43.70
2023-03-08T01:59:41.994Z,38.33
2023-03-08T02:02:12.096Z,30.20
2023-03-08T02:04:40.956Z,32.37
2023-03-08T02:07:12.819Z,27.53
2023-03-08T02:09:42.339Z,38.00
2023-03-08T02:12:13.174Z,47.33
2023-03-08T02:14:42.842Z,41.40
2023-03-08T02:17:13.212Z,44.80
2023-03-08T02:19:47.434Z,48.90
2023-03-08T02:22:16.673Z,47.27
2023-03-08T02:24:46.547Z,53.50
2023-03-08T02:27:16.910Z,51.27
2023-03-08T02:29:45.352Z,46.00
2023-03-08T02:32:13.644Z,42.73
2023-03-08T02:34:41.957Z,49.27
2023-03-08T02:37:10.327Z,42.07
2023-03-08T02:39:38.602Z,44.83
2023-03-08T02:42:08.956Z,45.50
2023-03-08T02:44:37.384Z,50.63
2023-03-08T02:47:06.617Z,44.60
2023-03-08T02:49:34.898Z,45.30
2023-03-08T02:52:04.036Z,46.63
2023-03-08T02:54:32.312Z,43.07
2023-03-08T02:57:01.832Z,37.57
2023-03-08T02:59:32.649Z,45.37
2023-03-08T03:02:01.194Z,43.30
2023-03-08T03:04:31.307Z,39.57
2023-03-08T03:07:00.518Z,38.00
2023-03-08T03:09:29.908Z,40.50
2023-03-08T03:11:58.486Z,42.23
2023-03-08T03:14:29.262Z,39.63
2023-03-08T03:16:59.740Z,41.03
2023-03-08T03:19:28.309Z,40.53
2023-03-08T03:21:56.663Z,43.20
2023-03-08T03:24:25.088Z,43.90
2023-03-08T03:26:57.329Z,43.50
2023-03-08T03:29:28.504Z,41.23
2023-03-08T03:32:09.158Z,40.70
2023-03-08T03:34:37.558Z,35.07
2023-03-08T03:37:06.149Z,39.43
2023-03-08T03:39:38.084Z,38.27
2023-03-08T03:42:08.644Z,37.10
2023-03-08T03:44:39.723Z,36.93
2023-03-08T03:47:12.889Z,42.60
2023-03-08T03:49:41.349Z,36.97
2023-03-08T03:52:09.741Z,35.53
2023-03-08T03:54:44.130Z,37.10
2023-03-08T03:57:12.377Z,39.20
2023-03-08T03:59:43.272Z,37.57
2023-03-08T04:02:13.493Z,44.30
2023-03-08T04:04:50.827Z,39.83
2023-03-08T04:07:22.811Z,44.07
2023-03-08T04:09:57.841Z,40.80
2023-03-08T04:12:26.912Z,44.17
2023-03-08T04:14:55.338Z,40.83
2023-03-08T04:17:27.092Z,44.87
2023-03-08T04:19:56.384Z,35.30
2023-03-08T04:22:24.862Z,42.43
2023-03-08T04:25:03.682Z,42.67
2023-03-08T04:27:43.411Z,42.43
2023-03-08T04:30:13.235Z,38.50
2023-03-08T04:32:43.932Z,37.27
2023-03-08T04:35:12.756Z,36.47
2023-03-08T04:37:45.594Z,48.50
2023-03-08T04:40:15.175Z,46.83
2023-03-08T04:42:50.807Z,42.63
2023-03-08T04:45:24.945Z,47.57
2023-03-08T04:47:57.108Z,40.93
2023-03-08T04:50:25.542Z,41.33
2023-03-08T04:52:59.059Z,54.03
2023-03-08T04:55:28.146Z,47.70
2023-03-08T04:57:56.687Z,44.73
2023-03-08T05:00:25.584Z,43.13
2023-03-08T05:02:56.263Z,47.67
2023-03-08T05:05:26.012Z,45.87
2023-03-08T05:07:55.287Z,46.27
2023-03-08T05:10:23.584Z,49.37
2023-03-08T05:12:52.206Z,58.27
2023-03-08T05:15:23.555Z,47.43
2023-03-08T05:17:51.994Z,54.80
2023-03-08T05:20:22.145Z,52.27
2023-03-08T05:22:58.944Z,45.43
2023-03-08T05:25:34.225Z,42.83
2023-03-08T05:28:03.801Z,40.07
2023-03-08T05:30:32.435Z,41.83
2023-03-08T05:33:01.229Z,40.60
2023-03-08T05:35:33.170Z,44.97
2023-03-08T05:38:01.827Z,45.77
2023-03-08T05:40:30.379Z,37.63
2023-03-08T05:42:59.475Z,39.97
2023-03-08T05:45:28.979Z,35.90
2023-03-08T05:47:57.386Z,43.03
2023-03-08T05:50:26.043Z,44.40
2023-03-08T05:52:56.260Z,42.60
2023-03-08T05:55:29.535Z,41.87
2023-03-08T05:57:59.438Z,35.43
2023-03-08T06:00:29.023Z,32.67
2023-03-08T06:03:03.960Z,34.87
2023-03-08T06:05:35.511Z,41.67
2023-03-08T06:08:06.629Z,38.47
2023-03-08T06:10:35.191Z,41.70
2023-03-08T06:13:04.650Z,35.17
2023-03-08T06:15:33.220Z,37.90
2023-03-08T06:18:03.730Z,41.23
2023-03-08T06:20:32.982Z,45.33
2023-03-08T06:23:02.124Z,41.73
2023-03-08T06:25:33.918Z,38.17
2023-03-08T06:28:02.576Z,45.70
2023-03-08T06:30:38.934Z,48.13
2023-03-08T06:33:07.692Z,44.27
2023-03-08T06:35:36.187Z,45.03
2023-03-08T06:38:06.407Z,48.90
2023-03-08T06:40:37.172Z,45.77
2023-03-08T06:43:05.562Z,51.87
2023-03-08T06:45:35.123Z,43.10
2023-03-08T06:48:03.469Z,45.73
2023-03-08T06:50:31.896Z,47.77
2023-03-08T06:53:00.337Z,38.67
2023-03-08T06:55:45.812Z,44.87
2023-03-08T06:58:14.353Z,42.83
2023-03-08T07:00:42.762Z,43.50
2023-03-08T07:03:11.757Z,47.80
2023-03-08T07:05:40.224Z,38.87
2023-03-08T07:08:08.954Z,36.67
2023-03-08T07:10:37.277Z,36.27
2023-03-08T07:13:06.942Z,42.80
2023-03-08T07:15:35.638Z,42.47
2023-03-08T07:18:03.919Z,41.57
2023-03-08T07:20:32.208Z,36.37
2023-03-08T07:23:02.050Z,35.90
2023-03-08T07:25:30.441Z,31.40
2023-03-08T07:28:00.170Z,35.70
2023-03-08T07:30:29.907Z,31.30
2023-03-08T07:32:58.379Z,29.73
2023-03-08T07:35:27.568Z,30.17
2023-03-08T07:37:55.994Z,28.87
2023-03-08T07:40:24.574Z,28.07
2023-03-08T07:42:53.146Z,28.70
2023-03-08T07:45:45.523Z,27.00
2023-03-08T07:48:13.796Z,25.83
2023-03-08T07:50:42.167Z,19.47
2023-03-08T07:53:10.529Z,32.27
2023-03-08T07:55:39.321Z,13.77
2023-03-08T07:58:07.726Z,27.83
2023-03-08T08:00:36.115Z,23.50
2023-03-08T08:03:06.160Z,26.03
2023-03-08T08:05:36.740Z,27.57
2023-03-08T08:08:05.652Z,13.80
2023-03-08T08:10:33.910Z,28.40
2023-03-08T08:13:02.277Z,27.67
2023-03-08T08:15:31.095Z,25.80
2023-03-08T08:17:59.517Z,24.57
2023-03-08T08:20:29.603Z,28.90
2023-03-08T08:22:57.924Z,25.20
2023-03-08T08:25:26.269Z,28.43
2023-03-08T08:27:54.591Z,29.07
2023-03-08T08:30:22.958Z,29.20
2023-03-08T08:32:53.273Z,25.20
2023-03-08T08:35:23.956Z,30.90
2023-03-08T08:37:56.777Z,22.77
2023-03-08T08:40:25.872Z,25.07
2023-03-08T08:42:55.661Z,25.40
2023-03-08T08:45:24.096Z,27.23
2023-03-08T08:47:52.458Z,21.40
2023-03-08T08:50:20.900Z,23.90
2023-03-08T08:52:49.351Z,23.40
2023-03-08T08:55:19.254Z,21.80
2023-03-08T08:57:47.520Z,23.97
2023-03-08T09:00:20.027Z,21.67
2023-03-08T09:02:48.411Z,24.20
2023-03-08T09:05:16.835Z,21.57
2023-03-08T09:07:45.262Z,21.10
2023-03-08T09:10:14.873Z,21.90
2023-03-08T09:12:44.611Z,23.47
2023-03-08T09:15:13.183Z,22.07
2023-03-08T09:17:41.507Z,17.20
2023-03-08T09:20:11.902Z,19.03
2023-03-08T09:22:40.380Z,24.20
2023-03-08T09:25:09.810Z,18.97
2023-03-08T09:27:38.617Z,19.40
2023-03-08T09:30:12.777Z,19.97
2023-03-08T09:32:41.121Z,23.30
2023-03-08T09:35:10.134Z,21.83
2023-03-08T09:37:39.240Z,29.47
2023-03-08T09:40:09.787Z,21.83
2023-03-08T09:42:38.430Z,21.67
2023-03-08T09:45:25.493Z,23.77
2023-03-08T09:48:05.049Z,24.00
2023-03-08T09:50:37.140Z,24.83
2023-03-08T09:53:10.658Z,25.27
2023-03-08T09:55:45.861Z,27.30
2023-03-08T09:58:31.040Z,29.87
2023-03-08T10:01:05.676Z,23.63
2023-03-08T10:03:59.682Z,26.27
2023-03-08T10:06:31.982Z,24.73
2023-03-08T10:09:04.340Z,24.90
2023-03-08T10:11:37.500Z,23.00
2023-03-08T10:14:14.243Z,25.00
2023-03-08T10:16:46.960Z,20.77
2023-03-08T10:19:18.459Z,28.43
2023-03-08T10:21:48.162Z,26.13
2023-03-08T10:24:18.273Z,20.33
2023-03-08T10:26:46.855Z,31.63
2023-03-08T10:29:15.726Z,19.37
2023-03-08T10:31:47.242Z,18.70
2023-03-08T10:34:17.710Z,23.70
2023-03-08T10:36:51.699Z,25.77
2023-03-08T10:39:21.258Z,22.70
2023-03-08T10:41:52.248Z,27.63
2023-03-08T10:44:34.051Z,25.97
2023-03-08T10:47:05.804Z,19.93
2023-03-08T10:49:34.735Z,21.30
2023-03-08T10:52:03.229Z,21.90
2023-03-08T10:54:31.580Z,19.53
2023-03-08T10:57:01.559Z,17.77
2023-03-08T10:59:33.500Z,24.23
2023-03-08T11:02:22.672Z,18.87
2023-03-08T11:04:55.732Z,20.17
2023-03-08T11:07:26.539Z,19.33
2023-03-08T11:10:07.951Z,21.40
2023-03-08T11:12:36.704Z,20.47
2023-03-08T11:15:15.039Z,23.17
2023-03-08T11:17:50.506Z,18.37
2023-03-08T11:20:24.962Z,16.90
2023-03-08T11:23:00.688Z,21.20
2023-03-08T11:25:46.095Z,18.37
2023-03-08T11:28:30.612Z,19.33
2023-03-08T11:31:09.669Z,19.40
2023-03-08T11:33:48.969Z,16.87
2023-03-08T11:36:22.876Z,17.17
2023-03-08T11:39:03.581Z,15.87
2023-03-08T11:41:39.811Z,15.63
2023-03-08T11:44:36.609Z,17.03
2023-03-08T11:47:45.154Z,17.63
2023-03-08T11:50:20.054Z,15.50
2023-03-08T11:52:59.279Z,14.23
2023-03-08T11:55:38.716Z,15.40
2023-03-08T11:58:25.475Z,17.33
2023-03-08T12:00:57.227Z,14.73
2023-03-08T12:03:29.432Z,14.47
2023-03-08T12:06:01.832Z,14.20
2023-03-08T12:08:33.456Z,17.53
2023-03-08T12:11:04.075Z,16.13
2023-03-08T12:13:35.629Z,15.07
2023-03-08T12:16:12.497Z,14.07
2023-03-08T12:18:46.252Z,15.60
2023-03-08T12:21:29.099Z,18.07
2023-03-08T12:24:04.023Z,15.40
2023-03-08T12:26:35.795Z,13.43
2023-03-08T12:29:07.176Z,13.47
2023-03-08T12:31:38.888Z,16.13
2023-03-08T12:34:14.589Z,14.87
2023-03-08T12:36:46.007Z,14.47
2023-03-08T12:39:27.636Z,12.63
2023-03-08T12:42:01.994Z,13.63
2023-03-08T12:44:31.693Z,14.70
2023-03-08T12:47:04.166Z,15.63
2023-03-08T12:49:35.747Z,14.10
2023-03-08T12:52:07.546Z,14.40
2023-03-08T12:54:37.046Z,12.90
2023-03-08T12:57:17.042Z,14.30
2023-03-08T12:59:46.145Z,17.23
2023-03-08T13:02:28.529Z,13.50
2023-03-08T13:05:06.767Z,11.80
2023-03-08T13:07:38.512Z,13.20
2023-03-08T13:10:10.251Z,13.83
2023-03-08T13:12:43.662Z,14.13
2023-03-08T13:15:26.448Z,15.93
2023-03-08T13:18:00.810Z,14.20
2023-03-08T13:20:35.979Z,13.60
2023-03-08T13:23:11.265Z,12.50
2023-03-08T13:25:51.791Z,13.27
2023-03-08T13:28:20.932Z,13.93
2023-03-08T13:30:52.306Z,14.40
2023-03-08T13:33:23.202Z,12.70
2023-03-08T13:35:59.271Z,15.67
2023-03-08T13:38:31.560Z,13.23
2023-03-08T13:41:00.733Z,11.73
2023-03-08T13:43:30.898Z,13.17
2023-03-08T13:46:01.911Z,16.33
2023-03-08T13:48:32.449Z,13.10
2023-03-08T13:51:01.128Z,12.97
2023-03-08T13:53:33.313Z,11.50
2023-03-08T13:56:03.377Z,13.63
2023-03-08T13:58:34.327Z,16.50
2023-03-08T14:01:05.515Z,12.13
2023-03-08T14:03:34.546Z,10.13
2023-03-08T14:06:02.972Z,9.90
2023-03-08T14:08:32.876Z,9.80
2023-03-08T14:11:04.261Z,10.60
2023-03-08T14:13:35.350Z,11.87
2023-03-08T14:16:06.627Z,9.47
2023-03-08T14:18:37.330Z,8.97
2023-03-08T14:21:15.416Z,10.90
2023-03-08T14:23:48.657Z,9.83
2023-03-08T14:26:34.999Z,10.93
2023-03-08T14:29:15.644Z,11.10
2023-03-08T14:31:54.898Z,10.57
2023-03-08T14:34:25.151Z,9.60
2023-03-08T14:36:56.641Z,8.03
2023-03-08T14:39:27.584Z,12.57
2023-03-08T14:41:56.272Z,11.73
2023-03-08T14:44:27.678Z,8.97
2023-03-08T14:46:59.412Z,12.43
2023-03-08T14:49:30.156Z,8.87
2023-03-08T14:51:59.459Z,8.23
2023-03-08T14:54:33.979Z,8.57
2023-03-08T14:57:18.124Z,6.40
2023-03-08T14:59:46.575Z,5.77
2023-03-08T15:02:16.048Z,5.50
2023-03-08T15:04:45.779Z,6.13
2023-03-08T15:07:18.304Z,5.80
2023-03-08T15:09:48.318Z,5.70
2023-03-08T15:12:16.665Z,7.23
2023-03-08T15:14:45.004Z,5.80
2023-03-08T15:17:13.403Z,4.77
2023-03-08T15:19:41.769Z,6.50
2023-03-08T15:22:13.722Z,7.27
2023-03-08T15:24:42.204Z,5.90
2023-03-08T15:27:15.721Z,8.80
2023-03-08T15:29:44.030Z,4.27
2023-03-08T15:32:12.381Z,7.90
2023-03-08T15:34:41.073Z,4.40
2023-03-08T15:37:13.033Z,7.33
2023-03-08T15:39:41.560Z,5.40
2023-03-08T15:42:09.970Z,6.40
2023-03-08T15:44:40.613Z,4.23
2023-03-08T15:47:10.873Z,4.97
2023-03-08T15:49:39.183Z,6.17
2023-03-08T15:52:08.783Z,6.40
2023-03-08T15:54:37.211Z,7.47
2023-03-08T15:57:05.665Z,5.67
2023-03-08T15:59:33.967Z,7.70
2023-03-08T16:02:04.031Z,6.43
2023-03-08T16:04:32.453Z,6.23
2023-03-08T16:07:00.822Z,6.10
2023-03-08T16:09:29.195Z,6.33
2023-03-08T16:11:57.555Z,6.63
2023-03-08T16:14:25.958Z,9.47
2023-03-08T16:16:54.315Z,6.93
2023-03-08T16:19:24.357Z,9.00
2023-03-08T16:21:52.801Z,8.17
2023-03-08T16:24:34.262Z,6.40
2023-03-08T16:27:09.965Z,7.00
2023-03-08T16:29:38.752Z,6.97
2023-03-08T16:32:15.644Z,7.57
2023-03-08T16:34:59.625Z,14.33
2023-03-08T16:37:28.403Z,8.17
2023-03-08T16:40:00.412Z,5.23
2023-03-08T16:42:28.756Z,9.00
2023-03-08T16:44:59.093Z,6.40
2023-03-08T16:47:35.632Z,7.40
2023-03-08T16:50:11.760Z,7.30
2023-03-08T16:52:42.152Z,15.13
2023-03-08T16:55:12.705Z,5.87
2023-03-08T16:57:42.965Z,7.40
2023-03-08T17:00:14.076Z,7.27
2023-03-08T17:02:45.414Z,8.40
2023-03-08T17:05:15.916Z,6.80
2023-03-08T17:07:44.764Z,5.97
2023-03-08T17:10:15.923Z,6.67
2023-03-08T17:12:44.559Z,5.87
2023-03-08T17:15:15.595Z,4.70
2023-03-08T17:17:46.317Z,5.47
2023-03-08T17:20:19.893Z,6.50
2023-03-08T17:22:48.168Z,9.10
2023-03-08T17:25:16.594Z,6.47
2023-03-08T17:27:45.310Z,7.60
2023-03-08T17:30:16.170Z,5.60
2023-03-08T17:32:44.817Z,11.07
2023-03-08T17:35:13.282Z,5.97
2023-03-08T17:37:43.637Z,5.30
2023-03-08T17:40:13.747Z,5.57
2023-03-08T17:42:42.323Z,6.10
2023-03-08T17:45:11.552Z,7.03
2023-03-08T17:47:39.914Z,5.40
2023-03-08T17:50:09.958Z,6.67
2023-03-08T17:52:40.657Z,10.27
2023-03-08T17:55:12.508Z,9.80
2023-03-08T17:57:40.872Z,8.77
2023-03-08T18:00:12.366Z,11.67
2023-03-08T18:02:41.361Z,8.60
2023-03-08T18:05:11.241Z,8.13
2023-03-08T18:07:41.900Z,7.93
2023-03-08T18:10:13.510Z,9.27
2023-03-08T18:12:43.234Z,6.23
2023-03-08T18:15:14.789Z,10.37
2023-03-08T18:17:44.204Z,7.60
2023-03-08T18:20:15.056Z,14.07
2023-03-08T18:22:44.807Z,17.77
2023-03-08T18:25:17.228Z,9.60
2023-03-08T18:27:49.141Z,9.10
2023-03-08T18:30:19.204Z,10.47
2023-03-08T18:32:51.288Z,12.50
2023-03-08T18:35:20.475Z,120.77
2023-03-08T18:37:49.715Z,18.23
2023-03-08T18:40:23.175Z,9.60
2023-03-08T18:42:56.571Z,9.50
2023-03-08T18:45:26.210Z,13.03
2023-03-08T18:47:56.210Z,12.63
2023-03-08T18:50:25.588Z,10.90
2023-03-08T18:52:54.800Z,9.13
2023-03-08T18:55:27.736Z,6.60
2023-03-08T18:57:57.741Z,10.07
2023-03-08T19:00:27.575Z,6.40
2023-03-08T19:02:57.815Z,7.33
2023-03-08T19:05:28.572Z,7.97
2023-03-08T19:07:58.526Z,9.07
2023-03-08T19:10:33.262Z,10.10
2023-03-08T19:13:03.113Z,9.23
2023-03-08T19:15:38.251Z,15.13
2023-03-08T19:18:09.284Z,11.37
2023-03-08T19:20:40.093Z,15.50
2023-03-08T19:23:13.264Z,15.97
2023-03-08T19:25:59.055Z,8.17
2023-03-08T19:28:30.043Z,7.93
2023-03-08T19:31:04.377Z,6.93
2023-03-08T19:33:35.657Z,8.87
2023-03-08T19:36:08.632Z,11.47
2023-03-08T19:38:39.106Z,11.90
2023-03-08T19:41:12.703Z,9.90
2023-03-08T19:43:43.521Z,61.03
2023-03-08T19:46:17.998Z,22.73
2023-03-08T19:48:50.460Z,17.70
2023-03-08T19:51:25.485Z,9.87
2023-03-08T19:53:58.128Z,19.60
2023-03-08T19:56:31.132Z,31.60
2023-03-08T19:59:02.747Z,11.87
2023-03-08T20:01:33.049Z,12.70
2023-03-08T20:04:06.253Z,16.17
2023-03-08T20:06:42.654Z,22.00
2023-03-08T20:09:18.632Z,15.13
2023-03-08T20:11:54.912Z,23.10
2023-03-08T20:14:28.426Z,26.30
2023-03-08T20:16:59.958Z,19.07
2023-03-08T20:19:36.607Z,21.33
2023-03-08T20:22:08.842Z,11.03
2023-03-08T20:24:40.936Z,18.30
2023-03-08T20:27:14.353Z,14.20
2023-03-08T20:29:46.303Z,14.07
2023-03-08T20:32:20.174Z,16.00
2023-03-08T20:34:52.665Z,15.90
2023-03-08T20:37:24.843Z,76.10
2023-03-08T20:39:55.325Z,50.50
2023-03-08T20:42:27.849Z,15.37
2023-03-08T20:44:59.181Z,10.87
2023-03-08T20:47:32.914Z,11.23
2023-03-08T20:50:04.855Z,11.13
2023-03-08T20:52:37.217Z,14.30
2023-03-08T20:55:08.213Z,14.13
2023-03-08T20:57:40.474Z,9.80
2023-03-08T21:00:17.244Z,14.73
2023-03-08T21:02:48.622Z,18.77
2023-03-08T21:05:19.531Z,13.10
2023-03-08T21:07:56.376Z,9.67
2023-03-08T21:10:28.151Z,14.50
2023-03-08T21:13:01.093Z,6.13
2023-03-08T21:15:31.875Z,9.17
2023-03-08T21:18:02.852Z,8.37
2023-03-08T21:20:33.331Z,11.30
2023-03-08T21:23:03.693Z,9.30
2023-03-08T21:25:35.500Z,8.93
2023-03-08T21:28:07.636Z,7.30
2023-03-08T21:30:37.634Z,7.07
2023-03-08T21:33:08.454Z,6.87
2023-03-08T21:35:40.905Z,5.23
2023-03-08T21:38:11.231Z,5.87
2023-03-08T21:40:43.059Z,6.30
2023-03-08T21:43:13.613Z,6.03
2023-03-08T21:45:44.203Z,6.63
2023-03-08T21:48:12.985Z,5.97
2023-03-08T21:50:41.772Z,9.67
2023-03-08T21:53:10.834Z,6.77
2023-03-08T21:55:40.663Z,4.90
2023-03-08T21:58:09.168Z,5.20
2023-03-08T22:00:39.046Z,6.43
2023-03-08T22:03:07.851Z,8.00
2023-03-08T22:05:36.164Z,7.53
2023-03-08T22:08:04.465Z,9.97
2023-03-08T22:10:32.678Z,6.13
2023-03-08T22:13:01.163Z,5.10
2023-03-08T22:15:29.461Z,6.37
2023-03-08T22:17:59.310Z,10.20
2023-03-08T22:20:28.564Z,4.60
2023-03-08T22:22:56.929Z,10.23
2023-03-08T22:25:25.287Z,7.40
2023-03-08T22:27:53.589Z,8.93
2023-03-08T22:30:21.962Z,7.13
2023-03-08T22:32:50.505Z,7.37
2023-03-08T22:35:21.603Z,6.20
2023-03-08T22:37:50.419Z,8.50
2023-03-08T22:40:19.590Z,8.67
2023-03-08T22:42:48.177Z,6.20
2023-03-08T22:45:16.767Z,12.13
2023-03-08T22:47:45.134Z,6.77
2023-03-08T22:50:14.047Z,6.87
2023-03-08T22:52:43.881Z,5.40
2023-03-08T22:55:13.206Z,6.97
2023-03-08T22:57:41.614Z,5.90
2023-03-08T23:00:14.546Z,5.83
2023-03-08T23:02:43.665Z,6.47
2023-03-08T23:05:13.489Z,5.40
2023-03-08T23:07:43.224Z,7.20
2023-03-08T23:10:13.149Z,6.33
2023-03-08T23:12:41.812Z,8.57
2023-03-08T23:15:10.928Z,6.47
2023-03-08T23:17:39.887Z,5.07
2023-03-08T23:20:10.082Z,6.90
2023-03-08T23:22:38.484Z,6.20
2023-03-08T23:25:10.196Z,7.60
2023-03-08T23:27:38.621Z,5.97
2023-03-08T23:30:08.582Z,5.90
2023-03-08T23:32:36.988Z,7.63
2023-03-08T23:35:05.834Z,6.60
2023-03-08T23:37:34.351Z,6.53
2023-03-08T23:40:04.850Z,9.33
2023-03-08T23:42:35.953Z,5.70
2023-03-08T23:45:04.498Z,7.63
2023-03-08T23:47:33.181Z,8.37
2023-03-08T23:50:01.772Z,7.90
2023-03-08T23:52:30.159Z,8.33
2023-03-08T23:54:58.525Z,6.23
2023-03-08T23:57:30.328Z,5.80
